createdAt,value
2019-04-21T00:01:16.299Z,8.67
2019-04-21T00:03:53.927Z,8.13
2019-04-21T00:06:43.473Z,8.63
2019-04-21T00:09:19.310Z,7.97
2019-04-21T00:11:47.038Z,7.90
2019-04-21T00:14:14.163Z,7.77
2019-04-21T00:16:45.359Z,8.53
2019-04-21T00:19:28.086Z,8.27
2019-04-21T00:22:08.610Z,8.70
2019-04-21T00:25:07.727Z,8.90
2019-04-21T00:27:44.271Z,8.53
2019-04-21T00:30:24.060Z,8.80
2019-04-21T00:32:46.308Z,8.90
2019-04-21T00:35:14.184Z,8.53
2019-04-21T00:38:00.545Z,9.30
2019-04-21T00:40:41.456Z,8.57
2019-04-21T00:43:13.314Z,8.77
2019-04-21T00:45:43.489Z,8.33
2019-04-21T00:48:28.933Z,8.67
2019-04-21T00:51:16.233Z,8.87
2019-04-21T00:53:56.083Z,9.03
2019-04-21T00:56:21.759Z,9.83
2019-04-21T00:58:59.806Z,8.90
2019-04-21T01:01:31.420Z,9.03
2019-04-21T01:04:02.199Z,9.70
2019-04-21T01:06:43.483Z,9.87
2019-04-21T01:09:13.558Z,7.50
2019-04-21T01:11:51.919Z,7.90
2019-04-21T01:14:32.955Z,8.13
2019-04-21T01:19:33.189Z,7.83
2019-04-21T01:21:48.871Z,7.60
2019-04-21T01:24:29.458Z,7.60
2019-04-21T01:27:06.285Z,7.93
2019-04-21T01:29:53.431Z,7.73
2019-04-21T01:32:29.533Z,7.90
2019-04-21T01:35:02.655Z,8.67
2019-04-21T01:37:44.278Z,7.27
2019-04-21T01:40:20.947Z,7.97
2019-04-21T01:42:45.758Z,7.67
2019-04-21T01:45:21.851Z,7.70
2019-04-21T01:47:52.153Z,7.80
2019-04-21T01:50:30.074Z,8.13
2019-04-21T01:53:17.650Z,7.90
2019-04-21T01:56:14.557Z,7.73
2019-04-21T01:58:40.308Z,7.80
2019-04-21T02:01:23.967Z,7.80
2019-04-21T02:04:14.024Z,7.80
2019-04-21T02:06:36.244Z,8.90
2019-04-21T02:09:08.168Z,7.83
2019-04-21T02:11:50.910Z,8.60
2019-04-21T02:14:26.020Z,8.00
2019-04-21T02:16:54.338Z,8.17
2019-04-21T02:19:27.890Z,8.03
2019-04-21T02:21:55.289Z,8.00
2019-04-21T02:24:42.079Z,9.30
2019-04-21T02:27:17.704Z,9.03
2019-04-21T02:29:55.850Z,10.77
2019-04-21T02:32:43.781Z,9.23
2019-04-21T02:35:30.196Z,8.57
2019-04-21T02:38:01.254Z,8.97
2019-04-21T02:40:46.497Z,8.23
2019-04-21T02:43:22.882Z,9.00
2019-04-21T02:45:56.330Z,8.40
2019-04-21T02:48:50.870Z,7.90
2019-04-21T02:51:19.377Z,8.40
2019-04-21T02:56:35.710Z,8.83
2019-04-21T02:59:17.291Z,9.70
2019-04-21T03:02:27.143Z,10.10
2019-04-21T03:07:56.908Z,9.53
2019-04-21T03:13:14.103Z,10.53
2019-04-21T03:18:36.461Z,11.20
2019-04-21T03:21:19.078Z,11.50
2019-04-21T03:26:42.339Z,10.57
2019-04-21T03:29:15.616Z,9.70
2019-04-21T03:34:41.747Z,10.13
2019-04-21T03:39:56.814Z,9.70
2019-04-21T03:42:34.885Z,9.37
2019-04-21T03:45:19.477Z,10.00
2019-04-21T03:47:55.180Z,9.07
2019-04-21T03:50:33.723Z,9.97
2019-04-21T03:55:53.230Z,9.67
2019-04-21T03:58:46.993Z,9.53
2019-04-21T04:01:32.471Z,10.20
2019-04-21T04:04:28.266Z,16.83
2019-04-21T04:07:51.410Z,19.13
2019-04-21T04:10:19.568Z,10.30
2019-04-21T04:12:44.316Z,9.90
2019-04-21T04:15:49.387Z,9.00
2019-04-21T04:18:36.089Z,8.93
2019-04-21T04:20:58.313Z,9.40
2019-04-21T04:23:31.536Z,11.30
2019-04-21T04:25:59.468Z,10.30
2019-04-21T04:33:50.201Z,8.30
2019-04-21T04:39:18.025Z,9.13
2019-04-21T04:41:35.074Z,10.30
2019-04-21T04:44:13.702Z,9.43
2019-04-21T04:47:00.100Z,11.40
2019-04-21T04:49:32.010Z,11.40
2019-04-21T04:51:58.568Z,11.20
2019-04-21T04:54:31.987Z,11.67
2019-04-21T04:56:59.250Z,10.80
2019-04-21T04:59:35.094Z,11.40
2019-04-21T05:02:16.969Z,10.23
2019-04-21T05:07:09.051Z,10.90
2019-04-21T05:12:11.721Z,12.40
2019-04-21T05:14:51.767Z,12.87
2019-04-21T05:17:32.706Z,13.20
2019-04-21T05:20:08.689Z,12.03
2019-04-21T05:22:29.115Z,13.03
2019-04-21T05:24:53.867Z,14.57
2019-04-21T05:27:36.558Z,14.07
2019-04-21T05:30:30.830Z,16.00
2019-04-21T05:33:30.661Z,14.93
2019-04-21T05:36:07.661Z,15.23
2019-04-21T05:38:53.331Z,15.77
2019-04-21T05:41:24.564Z,16.27
2019-04-21T05:44:06.865Z,15.10
2019-04-21T05:46:49.484Z,15.97
2019-04-21T05:49:26.442Z,15.50
2019-04-21T05:51:59.769Z,13.67
2019-04-21T05:54:48.275Z,15.27
2019-04-21T05:57:10.155Z,15.07
2019-04-21T05:59:51.587Z,15.53
2019-04-21T06:02:26.689Z,15.77
2019-04-21T06:05:10.019Z,15.20
2019-04-21T06:07:37.858Z,14.67
2019-04-21T06:10:07.258Z,14.43
2019-04-21T06:12:41.821Z,15.03
2019-04-21T06:15:16.645Z,14.63
2019-04-21T06:17:50.143Z,15.10
2019-04-21T06:20:21.186Z,15.80
2019-04-21T06:23:00.845Z,15.17
2019-04-21T06:28:06.375Z,15.87
2019-04-21T06:30:54.981Z,15.70
2019-04-21T06:33:16.822Z,16.00
2019-04-21T06:36:24.154Z,16.40
2019-04-21T06:39:12.107Z,14.90
2019-04-21T06:44:01.466Z,16.27
2019-04-21T06:49:09.197Z,14.83
2019-04-21T06:51:38.410Z,15.43
2019-04-21T06:54:14.539Z,14.97
2019-04-21T06:57:22.098Z,14.53
2019-04-21T06:59:20.843Z,13.43
2019-04-21T07:02:19.384Z,13.10
2019-04-21T07:04:36.459Z,14.17
2019-04-21T07:07:08.352Z,12.80
2019-04-21T07:09:41.339Z,13.23
2019-04-21T07:12:12.339Z,12.90
2019-04-21T07:14:49.767Z,13.00
2019-04-21T07:17:35.719Z,13.77
2019-04-21T07:20:02.449Z,12.50
2019-04-21T07:22:36.890Z,11.97
2019-04-21T07:25:09.246Z,12.40
2019-04-21T07:27:42.753Z,12.17
2019-04-21T07:30:13.155Z,10.93
2019-04-21T07:32:56.311Z,11.77
2019-04-21T07:35:22.201Z,12.40
2019-04-21T07:37:58.977Z,11.60
2019-04-21T07:40:29.009Z,11.97
2019-04-21T07:43:04.138Z,11.10
2019-04-21T07:45:35.088Z,11.77
2019-04-21T07:48:21.628Z,12.67
2019-04-21T07:51:11.288Z,10.97
2019-04-21T07:53:52.597Z,11.63
2019-04-21T07:56:07.245Z,11.23
2019-04-21T07:58:58.787Z,9.90
2019-04-21T08:01:30.714Z,10.17
2019-04-21T08:04:20.963Z,9.60
2019-04-21T08:06:43.847Z,9.97
2019-04-21T08:09:12.259Z,8.90
2019-04-21T08:11:41.715Z,10.10
2019-04-21T08:14:18.153Z,9.17
2019-04-21T08:17:01.553Z,8.87
2019-04-21T08:19:25.086Z,8.03
2019-04-21T08:22:05.229Z,7.53
2019-04-21T08:24:35.184Z,7.67
2019-04-21T08:27:14.159Z,7.20
2019-04-21T08:29:45.992Z,7.40
2019-04-21T08:32:28.096Z,7.30
2019-04-21T08:35:08.484Z,7.83
2019-04-21T08:37:24.175Z,15.43
2019-04-21T08:42:38.383Z,7.93
2019-04-21T08:45:15.143Z,6.97
2019-04-21T08:47:48.983Z,6.27
2019-04-21T08:50:20.711Z,6.93
2019-04-21T08:52:56.814Z,6.20
2019-04-21T08:55:48.879Z,6.20
2019-04-21T08:58:30.979Z,6.00
2019-04-21T09:01:20.876Z,5.97
2019-04-21T09:03:56.792Z,6.47
2019-04-21T09:06:41.912Z,6.27
2019-04-21T09:09:05.039Z,6.33
2019-04-21T09:11:44.516Z,6.07
2019-04-21T09:14:13.590Z,6.50
2019-04-21T09:16:48.562Z,5.57
2019-04-21T09:19:41.237Z,6.10
2019-04-21T09:22:02.330Z,5.30
2019-04-21T09:24:33.385Z,5.60
2019-04-21T09:27:06.418Z,5.87
2019-04-21T09:29:31.206Z,5.40
2019-04-21T09:32:00.040Z,5.73
2019-04-21T09:34:41.681Z,5.50
2019-04-21T09:37:24.621Z,5.73
2019-04-21T09:39:48.782Z,5.10
2019-04-21T09:42:19.818Z,6.03
2019-04-21T09:44:58.041Z,4.87
2019-04-21T09:47:37.502Z,5.03
2019-04-21T09:50:03.051Z,4.80
2019-04-21T09:52:44.280Z,4.73
2019-04-21T09:55:14.312Z,4.63
2019-04-21T09:57:50.299Z,4.73
2019-04-21T10:00:24.294Z,4.60
2019-04-21T10:03:00.940Z,4.63
2019-04-21T10:05:27.396Z,5.40
2019-04-21T10:08:01.739Z,5.10
2019-04-21T10:10:34.304Z,5.40
2019-04-21T10:13:07.158Z,7.57
2019-04-21T10:15:39.730Z,9.57
2019-04-21T10:18:17.423Z,6.60
2019-04-21T10:20:51.186Z,4.37
2019-04-21T10:23:23.874Z,4.33
2019-04-21T10:25:59.144Z,4.80
2019-04-21T10:28:32.865Z,5.00
2019-04-21T10:31:06.748Z,5.27
2019-04-21T10:33:39.955Z,4.00
2019-04-21T10:36:13.117Z,4.63
2019-04-21T10:38:51.678Z,4.27
2019-04-21T10:41:23.364Z,5.00
2019-04-21T10:43:55.938Z,4.57
2019-04-21T10:46:28.885Z,5.13
2019-04-21T10:49:01.745Z,4.80
2019-04-21T10:51:35.150Z,5.77
2019-04-21T10:54:08.253Z,4.70
2019-04-21T10:56:43.819Z,4.70
2019-04-21T10:59:16.426Z,5.67
2019-04-21T11:01:49.141Z,4.60
2019-04-21T11:04:33.649Z,5.00
2019-04-21T11:07:20.072Z,5.10
2019-04-21T11:09:53.894Z,4.70
2019-04-21T11:12:28.138Z,5.30
2019-04-21T11:15:01.172Z,4.73
2019-04-21T11:17:34.196Z,4.77
2019-04-21T11:20:08.889Z,5.77
2019-04-21T11:22:41.723Z,4.33
2019-04-21T11:25:15.742Z,5.30
2019-04-21T11:27:49.086Z,4.60
2019-04-21T11:30:23.234Z,4.97
2019-04-21T11:32:57.068Z,4.40
2019-04-21T11:35:31.421Z,5.23
2019-04-21T11:38:15.040Z,4.40
2019-04-21T11:40:43.195Z,4.53
2019-04-21T11:43:15.805Z,5.00
2019-04-21T11:45:48.579Z,4.40
2019-04-21T11:48:28.566Z,4.73
2019-04-21T11:51:01.346Z,4.77
2019-04-21T11:53:34.862Z,5.33
2019-04-21T11:56:09.029Z,4.77
2019-04-21T11:58:41.660Z,5.23
2019-04-21T12:01:15.872Z,4.70
2019-04-21T12:03:49.576Z,5.10
2019-04-21T12:06:30.886Z,4.67
2019-04-21T12:08:59.084Z,4.60
2019-04-21T12:11:31.379Z,5.67
2019-04-21T12:14:03.824Z,5.03
2019-04-21T12:16:37.047Z,4.77
2019-04-21T12:19:09.479Z,4.80
2019-04-21T12:21:53.470Z,4.67
2019-04-21T12:24:17.290Z,4.90
2019-04-21T12:26:50.014Z,4.80
2019-04-21T12:29:22.815Z,4.63
2019-04-21T12:32:12.404Z,5.03
2019-04-21T12:34:47.351Z,4.90
2019-04-21T12:37:19.316Z,4.60
2019-04-21T12:39:54.677Z,4.73
2019-04-21T12:42:27.451Z,5.17
2019-04-21T12:44:59.783Z,5.00
2019-04-21T12:47:34.044Z,5.33
2019-04-21T12:50:12.769Z,4.70
2019-04-21T12:52:45.411Z,4.50
2019-04-21T12:55:19.747Z,5.00
2019-04-21T12:57:53.192Z,4.43
2019-04-21T13:00:27.012Z,5.30
2019-04-21T13:02:59.351Z,4.77
2019-04-21T13:05:31.790Z,5.10
2019-04-21T13:08:04.198Z,4.60
2019-04-21T13:10:38.029Z,4.63
2019-04-21T13:13:10.571Z,4.83
2019-04-21T13:15:43.483Z,4.80
2019-04-21T13:18:16.417Z,4.23
2019-04-21T13:20:49.344Z,4.67
2019-04-21T13:23:22.977Z,4.37
2019-04-21T13:25:56.101Z,4.63
2019-04-21T13:28:30.315Z,4.53
2019-04-21T13:31:04.299Z,4.67
2019-04-21T13:33:37.738Z,4.90
2019-04-21T13:36:13.882Z,5.23
2019-04-21T13:39:33.032Z,4.80
2019-04-21T13:41:53.261Z,4.87
2019-04-21T13:44:15.738Z,4.80
2019-04-21T13:46:49.237Z,4.73
2019-04-21T13:49:23.365Z,4.40
2019-04-21T13:51:56.199Z,4.63
2019-04-21T13:54:29.638Z,4.30
2019-04-21T13:57:04.924Z,4.30
2019-04-21T13:59:49.533Z,4.70
2019-04-21T14:02:18.519Z,4.37
2019-04-21T14:04:59.169Z,4.73
2019-04-21T14:07:34.313Z,4.80
2019-04-21T14:10:10.384Z,4.10
2019-04-21T14:12:42.543Z,4.97
2019-04-21T14:15:16.085Z,4.63
2019-04-21T14:17:49.008Z,4.90
2019-04-21T14:20:33.333Z,4.70
2019-04-21T14:23:15.644Z,4.70
2019-04-21T14:25:41.750Z,4.80
2019-04-21T14:28:19.945Z,4.43
2019-04-21T14:30:52.840Z,4.33
2019-04-21T14:33:26.301Z,4.37
2019-04-21T14:36:00.892Z,5.87
2019-04-21T14:38:34.448Z,5.30
2019-04-21T14:41:08.258Z,4.97
2019-04-21T14:43:41.879Z,4.77
2019-04-21T14:46:37.395Z,4.60
2019-04-21T14:49:26.959Z,4.57
2019-04-21T14:52:23.068Z,4.50
2019-04-21T14:55:09.322Z,3.93
2019-04-21T14:57:47.292Z,4.20
2019-04-21T15:00:22.875Z,4.70
2019-04-21T15:02:56.017Z,4.80
2019-04-21T15:05:29.430Z,4.50
2019-04-21T15:08:03.425Z,4.50
2019-04-21T15:10:36.805Z,4.47
2019-04-21T15:13:10.376Z,4.83
2019-04-21T15:15:43.788Z,4.40
2019-04-21T15:18:18.795Z,4.57
2019-04-21T15:20:53.118Z,4.57
2019-04-21T15:23:28.675Z,4.67
2019-04-21T15:26:04.175Z,4.87
2019-04-21T15:28:39.112Z,4.67
2019-04-21T15:31:21.862Z,4.20
2019-04-21T15:33:47.524Z,4.50
2019-04-21T15:36:21.068Z,4.90
2019-04-21T15:38:56.086Z,4.47
2019-04-21T15:41:30.202Z,4.70
2019-04-21T15:44:05.972Z,4.93
2019-04-21T15:46:39.932Z,4.67
2019-04-21T15:49:13.407Z,4.33
2019-04-21T15:51:46.856Z,4.67
2019-04-21T15:54:20.672Z,4.73
2019-04-21T15:57:23.776Z,5.07
2019-04-21T16:00:20.711Z,4.83
2019-04-21T16:03:10.927Z,5.17
2019-04-21T16:05:51.987Z,4.80
2019-04-21T16:08:27.002Z,4.20
2019-04-21T16:11:07.095Z,4.07
2019-04-21T16:13:41.566Z,4.60
2019-04-21T16:16:20.089Z,4.20
2019-04-21T16:18:54.297Z,4.83
2019-04-21T16:21:27.674Z,4.90
2019-04-21T16:24:02.555Z,15.87
2019-04-21T16:26:36.526Z,7.53
2019-04-21T16:29:11.191Z,40.97
2019-04-21T16:31:44.442Z,7.50
2019-04-21T16:34:20.001Z,6.93
2019-04-21T16:36:53.966Z,5.57
2019-04-21T16:39:27.616Z,4.90
2019-04-21T16:42:02.564Z,4.93
2019-04-21T16:44:38.931Z,5.60
2019-04-21T16:47:13.799Z,5.00
2019-04-21T16:49:51.943Z,5.97
2019-04-21T16:52:32.132Z,6.70
2019-04-21T16:55:21.399Z,5.67
2019-04-21T16:58:04.486Z,6.10
2019-04-21T17:00:40.738Z,7.53
2019-04-21T17:03:10.400Z,8.30
2019-04-21T17:05:44.099Z,6.27
2019-04-21T17:08:17.818Z,5.83
2019-04-21T17:11:03.003Z,5.80
2019-04-21T17:13:27.260Z,6.00
2019-04-21T17:16:33.003Z,5.63
2019-04-21T17:18:51.445Z,6.20
2019-04-21T17:21:12.793Z,8.67
2019-04-21T17:23:48.153Z,9.43
2019-04-21T17:26:23.487Z,8.47
2019-04-21T17:29:00.795Z,8.43
2019-04-21T17:31:37.087Z,8.10
2019-04-21T17:34:17.923Z,8.43
2019-04-21T17:36:48.773Z,8.73
2019-04-21T17:39:22.850Z,12.23
2019-04-21T17:42:11.727Z,24.83
2019-04-21T17:44:39.254Z,34.27
2019-04-21T17:47:25.326Z,44.53
2019-04-21T17:50:09.479Z,53.90
2019-04-21T17:53:10.803Z,60.10
2019-04-21T17:55:42.658Z,52.83
2019-04-21T17:58:33.582Z,43.77
2019-04-21T18:01:12.792Z,32.10
2019-04-21T18:03:53.564Z,27.50
2019-04-21T18:06:10.311Z,23.97
2019-04-21T18:08:53.014Z,20.97
2019-04-21T18:11:18.065Z,18.13
2019-04-21T18:13:43.860Z,15.63
2019-04-21T18:16:25.074Z,14.73
2019-04-21T18:18:50.819Z,17.93
2019-04-21T18:21:32.432Z,19.93
2019-04-21T18:24:14.397Z,20.67
2019-04-21T18:26:50.720Z,23.87
2019-04-21T18:29:15.986Z,31.17
2019-04-21T18:31:50.569Z,38.90
2019-04-21T18:35:03.377Z,31.87
2019-04-21T18:38:01.607Z,25.43
2019-04-21T18:40:32.868Z,34.97
2019-04-21T18:43:44.971Z,30.87
2019-04-21T18:46:22.264Z,30.63
2019-04-21T18:48:51.593Z,27.03
2019-04-21T18:51:56.519Z,22.87
2019-04-21T18:54:39.183Z,17.37
2019-04-21T18:57:08.139Z,18.27
2019-04-21T18:59:36.152Z,19.97
2019-04-21T19:02:17.781Z,25.33
2019-04-21T19:04:48.518Z,18.27
2019-04-21T19:07:40.999Z,15.87
2019-04-21T19:10:22.336Z,15.00
2019-04-21T19:13:22.535Z,12.00
2019-04-21T19:15:29.876Z,11.67
2019-04-21T19:20:34.905Z,14.03
2019-04-21T19:23:11.660Z,12.27
2019-04-21T19:25:55.610Z,12.13
2019-04-21T19:28:24.650Z,12.07
2019-04-21T19:31:05.145Z,11.40
2019-04-21T19:33:32.162Z,10.37
2019-04-21T19:35:47.655Z,9.57
2019-04-21T19:38:31.661Z,8.93
2019-04-21T19:41:14.497Z,8.90
2019-04-21T19:43:45.986Z,10.00
2019-04-21T19:46:21.170Z,8.83
2019-04-21T19:49:05.092Z,8.90
2019-04-21T19:51:23.195Z,9.30
2019-04-21T19:53:54.021Z,10.33
2019-04-21T19:56:18.646Z,9.43
2019-04-21T19:58:50.886Z,9.43
2019-04-21T20:01:23.582Z,8.70
2019-04-21T20:03:59.618Z,8.23
2019-04-21T20:06:46.774Z,8.33
2019-04-21T20:09:24.856Z,7.60
2019-04-21T20:12:02.878Z,8.13
2019-04-21T20:14:51.056Z,8.30
2019-04-21T20:17:06.381Z,8.37
2019-04-21T20:19:24.837Z,9.07
2019-04-21T20:21:57.086Z,8.47
2019-04-21T20:24:32.444Z,8.57
2019-04-21T20:27:12.824Z,8.00
2019-04-21T20:29:56.133Z,8.40
2019-04-21T20:32:42.701Z,8.73
2019-04-21T20:35:07.102Z,8.47
2019-04-21T20:37:31.696Z,8.00
2019-04-21T20:39:59.899Z,8.47
2019-04-21T20:42:40.331Z,9.13
2019-04-21T20:45:31.969Z,8.97
2019-04-21T20:47:39.377Z,8.90
2019-04-21T20:50:19.747Z,8.23
2019-04-21T20:52:58.488Z,9.50
2019-04-21T20:55:29.073Z,8.60
2019-04-21T20:58:03.124Z,8.57
2019-04-21T21:01:08.992Z,8.73
2019-04-21T21:03:29.085Z,9.00
2019-04-21T21:06:00.313Z,8.23
2019-04-21T21:08:40.194Z,8.37
2019-04-21T21:11:07.962Z,8.90
2019-04-21T21:13:50.669Z,8.73
2019-04-21T21:16:35.489Z,9.20
2019-04-21T21:19:10.584Z,9.77
2019-04-21T21:21:30.082Z,9.37
2019-04-21T21:24:08.659Z,9.03
2019-04-21T21:26:46.591Z,9.17
2019-04-21T21:29:22.839Z,8.37
2019-04-21T21:31:55.545Z,9.60
2019-04-21T21:34:33.458Z,9.30
2019-04-21T21:37:15.792Z,9.13
2019-04-21T21:39:48.842Z,10.03
2019-04-21T21:42:02.830Z,9.63
2019-04-21T21:44:35.798Z,10.90
2019-04-21T21:47:23.944Z,10.30
2019-04-21T21:49:55.515Z,9.97
2019-04-21T21:52:31.367Z,10.20
2019-04-21T21:54:54.043Z,10.37
2019-04-21T21:57:28.327Z,10.33
2019-04-21T22:00:04.712Z,9.23
2019-04-21T22:02:45.528Z,9.90
2019-04-21T22:05:16.791Z,9.23
2019-04-21T22:07:46.590Z,8.87
2019-04-21T22:10:20.148Z,9.17
2019-04-21T22:13:01.017Z,8.23
2019-04-21T22:15:32.003Z,9.33
2019-04-21T22:18:28.743Z,8.70
2019-04-21T22:20:56.553Z,9.53
2019-04-21T22:23:24.183Z,9.57
2019-04-21T22:25:49.205Z,9.53
2019-04-21T22:28:22.440Z,9.13
2019-04-21T22:30:56.869Z,8.87
2019-04-21T22:33:34.505Z,11.80
2019-04-21T22:36:18.155Z,9.13
2019-04-21T22:38:54.907Z,9.37
2019-04-21T22:43:46.130Z,8.97
2019-04-21T22:46:16.177Z,9.60
2019-04-21T22:48:53.252Z,11.53
2019-04-21T22:51:34.866Z,9.23
2019-04-21T22:54:01.426Z,9.73
2019-04-21T22:56:36.070Z,10.23
2019-04-21T22:59:15.129Z,9.63
2019-04-21T23:01:49.784Z,9.37
2019-04-21T23:04:18.542Z,9.00
2019-04-21T23:06:59.303Z,9.30
2019-04-21T23:09:26.696Z,9.33
2019-04-21T23:12:01.925Z,9.33
2019-04-21T23:14:45.315Z,9.20
2019-04-21T23:17:29.482Z,9.20
2019-04-21T23:20:05.639Z,9.77
2019-04-21T23:22:49.300Z,9.50
2019-04-21T23:25:12.380Z,9.37
2019-04-21T23:27:46.911Z,8.93
2019-04-21T23:30:34.001Z,8.93
2019-04-21T23:32:50.743Z,8.27
2019-04-21T23:35:22.723Z,10.83
2019-04-21T23:37:56.476Z,8.57
2019-04-21T23:40:27.373Z,8.97
2019-04-21T23:43:00.109Z,8.87
2019-04-21T23:45:37.736Z,9.67
2019-04-21T23:48:23.558Z,9.47
2019-04-21T23:50:51.347Z,8.80
2019-04-21T23:53:17.440Z,8.47
2019-04-21T23:55:50.440Z,8.70
2019-04-21T23:58:26.392Z,8.80
